Time;durP1;ratioP1;P1;durP2;ratioP2;P2;SDS_P1;SDS_P2;PMS_P1;PMS_P2;Temp;Humidity;BMP_temperature;BMP_pressure;BME280_temperature;BME280_humidity;BME280_pressure;Samples;Min_cycle;Max_cycle;Signal;HPM_P1;HPM_P2
2023/04/03 00:01:32;;;;;;;3.88;1.60;;;2.80;99.90;;;;;;5007331;28;20492;-50
2023/04/03 00:03:59;;;;;;;4.18;1.17;;;2.70;99.90;;;;;;5010117;28;20042;-50
2023/04/03 00:06:26;;;;;;;4.28;1.50;;;2.70;99.90;;;;;;5006676;28;20234;-50
2023/04/03 00:08:52;;;;;;;3.35;1.20;;;2.70;99.90;;;;;;4993537;28;20042;-51
2023/04/03 00:11:19;;;;;;;3.78;1.10;;;2.70;99.90;;;;;;5010343;28;20129;-50
2023/04/03 00:13:45;;;;;;;2.78;1.20;;;2.60;99.90;;;;;;5010018;28;20050;-50
2023/04/03 00:16:11;;;;;;;3.40;0.98;;;2.60;99.90;;;;;;5009277;28;20037;-50
2023/04/03 00:18:39;;;;;;;2.97;1.23;;;2.60;99.90;;;;;;5010505;28;20116;-49
2023/04/03 00:21:06;;;;;;;4.00;1.08;;;2.50;99.90;;;;;;5010706;28;20038;-51
2023/04/03 00:23:32;;;;;;;2.80;1.20;;;2.60;99.90;;;;;;5010542;28;20113;-52
2023/04/03 00:25:57;;;;;;;2.00;1.10;;;2.50;99.90;;;;;;4993019;28;20053;-49
2023/04/03 00:28:23;;;;;;;4.72;1.20;;;2.50;99.90;;;;;;5009601;28;20459;-50
2023/04/03 00:30:50;;;;;;;3.72;1.52;;;2.50;99.90;;;;;;5006345;28;20034;-52
2023/04/03 00:33:16;;;;;;;2.40;1.27;;;2.50;99.90;;;;;;4989233;28;20375;-49
2023/04/03 00:35:42;;;;;;;1.90;1.20;;;2.50;99.90;;;;;;4991015;28;20133;-54
2023/04/03 00:38:08;;;;;;;5.38;1.23;;;2.50;99.90;;;;;;5007657;28;20046;-52
2023/04/03 00:40:38;;;;;;;2.97;1.20;;;2.40;99.90;;;;;;5009452;28;20117;-55
2023/04/03 00:43:16;;;;;;;2.50;1.20;;;2.40;99.90;;;;;;5010316;28;20048;-53
2023/04/03 00:45:44;;;;;;;3.25;1.20;;;2.40;99.90;;;;;;5009624;28;20057;-51
2023/04/03 00:48:16;;;;;;;2.45;1.20;;;2.30;99.90;;;;;;4992390;28;20041;-50
2023/04/03 00:50:43;;;;;;;2.15;1.48;;;2.30;99.90;;;;;;5009576;28;20065;-49
2023/04/03 00:53:13;;;;;;;3.47;1.00;;;2.30;99.90;;;;;;5009836;28;20753;-53
2023/04/03 00:55:39;;;;;;;2.25;1.35;;;2.30;99.90;;;;;;4999005;28;20388;-50
2023/04/03 00:58:07;;;;;;;4.00;1.50;;;2.20;99.90;;;;;;5008578;28;20050;-51
2023/04/03 01:00:33;;;;;;;3.42;1.40;;;2.20;99.90;;;;;;5010261;28;20050;-51
2023/04/03 01:03:00;;;;;;;2.05;1.30;;;2.10;99.90;;;;;;4990984;28;20495;-53
2023/04/03 01:05:25;;;;;;;7.78;2.10;;;2.20;99.90;;;;;;4986889;28;20085;-49
2023/04/03 01:07:52;;;;;;;3.78;1.58;;;2.10;99.90;;;;;;4995305;28;20170;-49
2023/04/03 01:10:20;;;;;;;4.10;1.30;;;2.10;99.90;;;;;;5009915;28;20045;-50
2023/04/03 01:12:47;;;;;;;4.85;1.65;;;2.10;99.90;;;;;;5011206;28;20041;-49
2023/04/03 01:15:20;;;;;;;3.70;1.57;;;2.10;99.90;;;;;;5016521;28;20118;-50
2023/04/03 01:17:51;;;;;;;3.03;1.55;;;2.00;99.90;;;;;;5015912;28;20164;-50
2023/04/03 01:20:31;;;;;;;4.88;1.50;;;2.00;99.90;;;;;;5003097;28;20233;-49
2023/04/03 01:23:15;;;;;;;4.15;1.83;;;2.00;99.90;;;;;;5009446;28;20046;-54
2023/04/03 01:25:45;;;;;;;3.40;1.42;;;1.90;99.90;;;;;;5015776;28;20391;-49
2023/04/03 01:28:33;;;;;;;3.30;1.60;;;1.90;99.90;;;;;;4988204;28;20037;-51
2023/04/03 01:31:22;;;;;;;4.10;1.73;;;1.90;99.90;;;;;;4996935;28;20142;-49
2023/04/03 01:33:49;;;;;;;3.47;1.30;;;1.80;99.90;;;;;;4996780;28;20108;-50
2023/04/03 01:36:24;;;;;;;3.97;1.55;;;1.80;99.90;;;;;;5002940;28;20061;-49
2023/04/03 01:38:51;;;;;;;4.05;1.83;;;1.80;99.90;;;;;;5013050;28;20512;-49
2023/04/03 01:41:18;;;;;;;2.15;1.40;;;1.70;99.90;;;;;;5011048;28;20106;-49
2023/04/03 01:43:44;;;;;;;3.10;1.42;;;1.70;99.90;;;;;;4994957;28;20117;-49
2023/04/03 01:46:09;;;;;;;3.97;2.03;;;1.70;99.90;;;;;;5010675;28;20045;-49
2023/04/03 01:48:35;;;;;;;4.57;1.60;;;1.70;99.90;;;;;;5013174;28;20620;-49
2023/04/03 01:51:01;;;;;;;2.67;1.85;;;1.60;99.90;;;;;;5014428;28;20086;-49
2023/04/03 01:53:27;;;;;;;3.75;1.40;;;1.60;99.90;;;;;;4994733;28;20547;-49
2023/04/03 01:55:52;;;;;;;4.28;1.65;;;1.60;99.90;;;;;;4997082;28;20065;-49
2023/04/03 01:58:18;;;;;;;5.18;1.70;;;1.60;99.90;;;;;;5012294;28;20506;-50
2023/04/03 02:00:44;;;;;;;2.95;1.63;;;1.60;99.90;;;;;;4997782;28;20046;-49
2023/04/03 02:03:09;;;;;;;5.07;1.60;;;1.60;99.90;;;;;;5016046;28;20073;-52
2023/04/03 02:05:35;;;;;;;2.42;1.70;;;1.50;99.90;;;;;;5015607;28;20492;-50
2023/04/03 02:08:01;;;;;;;4.05;1.80;;;1.50;99.90;;;;;;4995785;28;20546;-51
2023/04/03 02:10:27;;;;;;;5.47;2.10;;;1.50;99.90;;;;;;5014802;28;20046;-49
2023/04/03 02:12:53;;;;;;;4.90;2.05;;;1.40;99.90;;;;;;5013756;28;20069;-54
2023/04/03 02:15:18;;;;;;;3.15;1.73;;;1.40;99.90;;;;;;5011824;28;20050;-54
2023/04/03 02:17:44;;;;;;;4.60;1.88;;;1.40;99.90;;;;;;5008989;28;20041;-50
2023/04/03 02:20:10;;;;;;;4.53;1.90;;;1.40;99.90;;;;;;4995521;28;20038;-49
2023/04/03 02:22:36;;;;;;;2.97;1.70;;;1.40;99.90;;;;;;5014905;28;20445;-52
2023/04/03 02:25:02;;;;;;;3.55;1.80;;;1.40;99.90;;;;;;5013051;28;20038;-54
2023/04/03 02:27:28;;;;;;;4.50;2.20;;;1.30;99.90;;;;;;5011796;28;20042;-51
2023/04/03 02:29:54;;;;;;;5.57;1.83;;;1.30;99.90;;;;;;5006667;28;20057;-53
2023/04/03 02:32:19;;;;;;;4.32;1.95;;;1.30;99.90;;;;;;5004646;28;20124;-51
2023/04/03 02:34:45;;;;;;;4.28;1.92;;;1.30;99.90;;;;;;4978122;28;20395;-53
2023/04/03 02:37:11;;;;;;;4.00;1.98;;;1.20;99.90;;;;;;5014356;28;20064;-54
2023/04/03 02:39:36;;;;;;;5.60;1.75;;;1.20;99.90;;;;;;5014331;28;20445;-53
2023/04/03 02:42:02;;;;;;;5.30;1.88;;;1.20;99.90;;;;;;5013478;28;20095;-53
2023/04/03 02:44:28;;;;;;;3.70;1.65;;;1.10;99.90;;;;;;5000484;28;20046;-52
2023/04/03 02:46:54;;;;;;;5.30;2.08;;;1.10;99.90;;;;;;5004362;28;20053;-54
2023/04/03 02:49:19;;;;;;;4.68;1.77;;;1.10;99.90;;;;;;5015136;28;20038;-50
2023/04/03 02:51:45;;;;;;;4.93;1.90;;;1.10;99.90;;;;;;4995999;28;20050;-54
2023/04/03 02:54:11;;;;;;;5.10;1.75;;;1.10;99.90;;;;;;5005220;28;20033;-50
2023/04/03 02:56:37;;;;;;;5.80;1.95;;;1.10;99.90;;;;;;5011212;28;20058;-50
2023/04/03 02:59:03;;;;;;;3.40;1.90;;;1.00;99.90;;;;;;5002593;28;20093;-53
2023/04/03 03:01:31;;;;;;;4.05;1.60;;;1.00;99.90;;;;;;5002342;28;20096;-52
2023/04/03 03:03:57;;;;;;;6.65;1.98;;;1.00;99.90;;;;;;5002935;28;20098;-51
2023/04/03 03:06:23;;;;;;;4.07;2.40;;;0.90;99.90;;;;;;5009478;28;20030;-51
2023/04/03 03:08:49;;;;;;;4.60;1.90;;;0.90;99.90;;;;;;4986254;28;20483;-54
2023/04/03 03:11:14;;;;;;;3.75;1.70;;;0.90;99.90;;;;;;5015025;28;20037;-49
2023/04/03 03:13:40;;;;;;;3.70;1.98;;;0.80;99.90;;;;;;4983133;28;20042;-53
2023/04/03 03:16:06;;;;;;;4.38;2.08;;;0.80;99.90;;;;;;5005206;28;20128;-51
2023/04/03 03:18:32;;;;;;;4.20;2.35;;;0.80;99.90;;;;;;5001818;28;20490;-51
2023/04/03 03:20:59;;;;;;;2.40;1.73;;;0.80;99.90;;;;;;4985380;28;20033;-53
2023/04/03 03:23:27;;;;;;;6.53;2.75;;;0.70;99.90;;;;;;5003102;28;20042;-51
2023/04/03 03:25:58;;;;;;;5.47;2.25;;;0.70;99.90;;;;;;5002063;28;20452;-50
2023/04/03 03:28:24;;;;;;;5.32;2.20;;;0.70;99.90;;;;;;5006069;28;20046;-53
2023/04/03 03:30:49;;;;;;;5.88;2.50;;;0.60;99.90;;;;;;5013200;28;20042;-50
2023/04/03 03:33:17;;;;;;;3.70;1.90;;;0.60;99.90;;;;;;5007408;28;20046;-49
2023/04/03 03:35:43;;;;;;;8.40;2.28;;;0.60;99.90;;;;;;5005120;28;20049;-50
2023/04/03 03:38:09;;;;;;;6.43;2.33;;;0.60;99.90;;;;;;5005496;28;20050;-54
2023/04/03 03:40:35;;;;;;;5.00;2.20;;;0.50;99.90;;;;;;5013891;28;20033;-51
2023/04/03 03:43:01;;;;;;;4.25;2.35;;;0.50;99.90;;;;;;5006173;28;20140;-51
2023/04/03 03:45:26;;;;;;;6.10;2.72;;;0.50;99.90;;;;;;5004694;28;20041;-54
2023/04/03 03:47:52;;;;;;;4.45;2.38;;;0.50;99.90;;;;;;4988670;28;20041;-52
2023/04/03 03:50:18;;;;;;;4.75;2.28;;;0.50;99.90;;;;;;5007089;28;20038;-51
2023/04/03 03:52:44;;;;;;;4.70;2.17;;;0.40;99.90;;;;;;5005457;28;20030;-51
2023/04/03 03:55:10;;;;;;;4.00;2.20;;;0.40;99.90;;;;;;5005692;28;20053;-52
2023/04/03 03:57:36;;;;;;;2.85;2.05;;;0.40;99.90;;;;;;4990873;28;20054;-51
2023/04/03 04:00:02;;;;;;;7.13;2.50;;;0.40;99.90;;;;;;5007941;28;20054;-51
2023/04/03 04:02:27;;;;;;;4.72;2.25;;;0.40;99.90;;;;;;5007849;28;20042;-50
2023/04/03 04:04:53;;;;;;;5.15;2.05;;;0.40;99.90;;;;;;5006305;28;20049;-52
2023/04/03 04:07:18;;;;;;;4.28;2.28;;;0.30;99.90;;;;;;5007515;28;21865;-52
2023/04/03 04:09:44;;;;;;;5.38;2.15;;;0.30;99.90;;;;;;5004974;28;20042;-53
2023/04/03 04:12:10;;;;;;;6.32;2.70;;;0.30;99.90;;;;;;5006241;28;20049;-53
2023/04/03 04:14:35;;;;;;;6.53;2.33;;;0.30;99.90;;;;;;5006546;28;20038;-53
2023/04/03 04:17:02;;;;;;;3.95;2.25;;;0.30;99.90;;;;;;5006785;28;20452;-53
2023/04/03 04:19:28;;;;;;;7.72;2.78;;;0.20;99.90;;;;;;5005794;28;20048;-50
2023/04/03 04:21:54;;;;;;;4.38;2.30;;;0.20;99.90;;;;;;5005010;28;20044;-50
2023/04/03 04:24:19;;;;;;;6.82;2.33;;;0.20;99.90;;;;;;5006163;28;20034;-49
2023/04/03 04:26:45;;;;;;;6.68;2.55;;;0.20;99.90;;;;;;5006829;28;20046;-51
2023/04/03 04:29:11;;;;;;;6.28;2.50;;;0.10;99.90;;;;;;5005855;28;20069;-52
2023/04/03 04:31:36;;;;;;;6.30;2.85;;;0.10;99.90;;;;;;5006166;28;20038;-50
2023/04/03 04:34:02;;;;;;;4.90;2.63;;;0.10;99.90;;;;;;5006011;28;20049;-50
2023/04/03 04:36:28;;;;;;;9.23;2.65;;;0.10;99.90;;;;;;5006252;28;20103;-51
2023/04/03 04:38:53;;;;;;;5.07;2.28;;;0.10;99.90;;;;;;5007708;28;20475;-53
2023/04/03 04:41:22;;;;;;;3.88;2.63;;;0.10;99.90;;;;;;5010818;28;20054;-51
2023/04/03 04:43:52;;;;;;;4.78;2.42;;;0.00;99.90;;;;;;5009628;28;20114;-51
2023/04/03 04:46:18;;;;;;;5.25;2.63;;;0.00;99.90;;;;;;5009256;28;20038;-54
2023/04/03 04:48:44;;;;;;;4.93;2.72;;;0.00;99.90;;;;;;5007775;28;20106;-54
2023/04/03 04:51:10;;;;;;;4.60;2.45;;;-0.10;99.90;;;;;;5007543;28;20046;-52
2023/04/03 04:53:36;;;;;;;5.07;2.58;;;-0.10;99.90;;;;;;5008168;28;20090;-52
2023/04/03 04:56:02;;;;;;;5.70;2.70;;;-0.10;99.90;;;;;;5010430;28;20046;-49
2023/04/03 04:58:27;;;;;;;7.85;2.40;;;-0.10;99.90;;;;;;5002894;28;20053;-52
2023/04/03 05:01:00;;;;;;;4.93;2.50;;;-0.10;99.90;;;;;;5006124;28;20046;-49
2023/04/03 05:03:25;;;;;;;6.43;2.70;;;-0.10;99.90;;;;;;5007544;28;20042;-50
2023/04/03 05:05:51;;;;;;;5.13;2.40;;;-0.10;99.90;;;;;;5009862;28;20048;-53
2023/04/03 05:08:16;;;;;;;9.32;3.17;;;-0.10;99.90;;;;;;5007364;28;20049;-50
2023/04/03 05:10:42;;;;;;;6.60;2.70;;;-0.10;99.90;;;;;;5010123;28;20493;-51
2023/04/03 05:13:08;;;;;;;5.35;2.60;;;-0.10;99.90;;;;;;5008459;28;20069;-52
2023/04/03 05:15:33;;;;;;;8.98;2.97;;;-0.20;99.90;;;;;;5009694;28;20065;-51
2023/04/03 05:17:59;;;;;;;4.88;2.55;;;-0.10;99.90;;;;;;5004993;28;20099;-49
2023/04/03 05:20:25;;;;;;;6.05;2.88;;;-0.10;99.90;;;;;;5009491;28;20566;-51
2023/04/03 05:22:50;;;;;;;6.03;2.58;;;-0.10;99.90;;;;;;4992796;28;20081;-52
2023/04/03 05:25:16;;;;;;;5.20;2.40;;;-0.10;99.90;;;;;;5008709;28;20466;-49
2023/04/03 05:27:42;;;;;;;4.40;2.47;;;-0.10;99.90;;;;;;5008840;28;20127;-51
2023/04/03 05:30:08;;;;;;;5.78;2.83;;;-0.10;99.90;;;;;;5009842;28;20034;-51
2023/04/03 05:32:33;;;;;;;4.78;2.70;;;-0.10;99.90;;;;;;5010246;28;20042;-53
2023/04/03 05:34:59;;;;;;;5.32;2.45;;;0.00;99.90;;;;;;4991408;28;20122;-51
2023/04/03 05:37:25;;;;;;;8.50;2.78;;;0.00;99.90;;;;;;5002243;28;20042;-50
2023/04/03 05:39:50;;;;;;;4.75;2.45;;;0.00;99.90;;;;;;5004583;28;20033;-50
2023/04/03 05:42:16;;;;;;;5.10;2.55;;;0.00;99.90;;;;;;5007203;28;20046;-50
2023/04/03 05:44:42;;;;;;;4.90;2.60;;;0.00;99.90;;;;;;5007109;28;20064;-49
2023/04/03 05:47:08;;;;;;;6.03;2.10;;;0.10;99.90;;;;;;5005069;28;20038;-49
2023/04/03 05:49:34;;;;;;;5.90;2.20;;;0.10;99.90;;;;;;5008722;28;20124;-51
2023/04/03 05:52:01;;;;;;;6.10;2.50;;;0.10;99.90;;;;;;4994540;28;20060;-50
2023/04/03 05:54:29;;;;;;;6.07;2.67;;;0.20;99.90;;;;;;5008999;28;20061;-53
2023/04/03 05:56:55;;;;;;;3.92;1.95;;;0.20;99.90;;;;;;5008487;28;20045;-51
2023/04/03 05:59:21;;;;;;;6.75;2.47;;;0.30;99.90;;;;;;5007870;28;20054;-48
2023/04/03 06:01:47;;;;;;;6.43;2.60;;;0.30;99.90;;;;;;5012519;28;20054;-49
2023/04/03 06:04:13;;;;;;;5.45;2.38;;;0.30;99.90;;;;;;5012921;28;20067;-49
2023/04/03 06:06:53;;;;;;;6.18;2.45;;;0.40;99.90;;;;;;5010304;28;20046;-49
2023/04/03 06:09:21;;;;;;;3.67;1.80;;;1.20;99.90;;;;;;4991104;28;20049;-51
2023/04/03 06:11:47;;;;;;;3.55;2.03;;;2.80;99.90;;;;;;5008882;28;20453;-51
2023/04/03 06:14:13;;;;;;;6.55;2.38;;;3.70;99.90;;;;;;5011953;28;20068;-50
2023/04/03 06:16:39;;;;;;;4.43;2.20;;;3.70;99.90;;;;;;5012753;28;20136;-52
2023/04/03 06:19:05;;;;;;;6.60;2.33;;;4.40;99.90;;;;;;5012006;28;20468;-51
2023/04/03 06:21:31;;;;;;;7.45;2.47;;;5.20;99.90;;;;;;5012450;28;20049;-54
2023/04/03 06:23:57;;;;;;;3.50;1.95;;;5.50;99.90;;;;;;5009845;28;20041;-50
2023/04/03 06:26:23;;;;;;;5.60;2.28;;;5.70;99.90;;;;;;4992854;28;20050;-50
2023/04/03 06:28:48;;;;;;;5.40;1.83;;;6.00;99.90;;;;;;5008260;28;20124;-51
2023/04/03 06:31:14;;;;;;;4.32;1.80;;;6.30;99.90;;;;;;5011825;28;20046;-49
2023/04/03 06:33:40;;;;;;;5.30;1.90;;;6.50;99.90;;;;;;5012456;28;20110;-52
2023/04/03 06:36:06;;;;;;;5.20;1.88;;;6.90;99.90;;;;;;5012503;28;20483;-51
2023/04/03 06:38:33;;;;;;;6.40;2.28;;;6.90;99.90;;;;;;4994722;28;20042;-53
2023/04/03 06:41:00;;;;;;;4.73;2.17;;;7.10;99.90;;;;;;5011765;28;20123;-50
2023/04/03 06:43:25;;;;;;;5.30;2.28;;;7.20;99.90;;;;;;4991011;28;20079;-50
2023/04/03 06:45:51;;;;;;;5.35;2.05;;;7.50;99.90;;;;;;4991403;28;20043;-54
2023/04/03 06:48:17;;;;;;;6.45;2.25;;;7.30;99.90;;;;;;4991589;28;20042;-52
2023/04/03 06:50:43;;;;;;;3.63;1.80;;;7.60;99.90;;;;;;4998865;28;20375;-51
2023/04/03 06:53:09;;;;;;;6.00;2.20;;;7.80;99.90;;;;;;5006806;28;20038;-56
2023/04/03 06:55:35;;;;;;;5.03;1.73;;;7.90;99.90;;;;;;5001408;28;20495;-54
2023/04/03 06:58:01;;;;;;;7.55;2.10;;;7.90;99.90;;;;;;4991078;28;20112;-52
2023/04/03 07:00:27;;;;;;;4.85;1.58;;;8.20;99.90;;;;;;5004839;28;20431;-52
2023/04/03 07:02:53;;;;;;;3.83;1.30;;;8.40;99.90;;;;;;5004628;28;20050;-51
2023/04/03 07:05:19;;;;;;;4.20;2.20;;;8.10;99.90;;;;;;5005578;28;20462;-51
2023/04/03 07:07:44;;;;;;;2.88;1.77;;;8.30;99.90;;;;;;5006934;28;20042;-51
2023/04/03 07:10:11;;;;;;;5.32;1.83;;;7.90;99.90;;;;;;5004242;28;20041;-52
2023/04/03 07:12:37;;;;;;;6.75;1.73;;;8.30;99.90;;;;;;5007565;28;20094;-50
2023/04/03 07:15:05;;;;;;;6.50;1.42;;;7.90;99.90;;;;;;5005227;28;20121;-52
2023/04/03 07:17:31;;;;;;;5.13;1.27;;;7.80;99.90;;;;;;5003518;28;20087;-53
2023/04/03 07:19:56;;;;;;;4.40;1.80;;;6.60;99.90;;;;;;5015952;28;20128;-52
2023/04/03 07:22:22;;;;;;;3.22;1.45;;;6.50;99.90;;;;;;5011115;28;20125;-54
2023/04/03 07:24:48;;;;;;;3.97;1.50;;;6.00;99.90;;;;;;5001018;28;20144;-52
2023/04/03 07:27:14;;;;;;;4.68;1.20;;;5.20;99.90;;;;;;5038355;28;20061;-52
2023/04/03 07:29:40;;;;;;;5.68;1.70;;;4.90;99.90;;;;;;5014023;28;20041;-54
2023/04/03 07:32:06;;;;;;;4.40;1.77;;;4.90;99.90;;;;;;5003788;28;20090;-52
2023/04/03 07:34:32;;;;;;;3.67;1.60;;;4.80;99.90;;;;;;5002180;28;20050;-52
2023/04/03 07:36:58;;;;;;;4.95;1.65;;;4.80;99.90;;;;;;5015355;28;20051;-52
2023/04/03 07:39:25;;;;;;;4.18;1.70;;;4.80;99.90;;;;;;5003931;28;20042;-52
2023/04/03 07:41:51;;;;;;;3.78;1.20;;;4.80;99.90;;;;;;5001282;28;20121;-53
2023/04/03 07:44:17;;;;;;;2.30;1.10;;;4.60;99.90;;;;;;5005608;28;20116;-49
2023/04/03 07:46:43;;;;;;;3.92;1.50;;;4.60;99.90;;;;;;5006119;28;20064;-51
2023/04/03 07:49:09;;;;;;;5.38;1.58;;;4.70;99.90;;;;;;5000687;28;20042;-53
2023/04/03 07:51:35;;;;;;;4.88;1.60;;;4.60;99.90;;;;;;5012101;28;20069;-53
2023/04/03 07:54:00;;;;;;;4.47;1.10;;;4.70;99.90;;;;;;5012419;28;20070;-50
2023/04/03 07:56:26;;;;;;;4.28;1.60;;;4.80;99.90;;;;;;5021630;28;20041;-50
2023/04/03 07:58:52;;;;;;;4.07;1.38;;;4.80;99.90;;;;;;5001941;28;21333;-51
2023/04/03 08:01:17;;;;;;;4.43;1.17;;;4.90;99.90;;;;;;5002970;28;20041;-50
2023/04/03 08:03:43;;;;;;;4.47;1.30;;;5.10;99.90;;;;;;5023986;28;20099;-51
2023/04/03 08:06:09;;;;;;;5.85;1.65;;;5.10;99.90;;;;;;5004519;28;20046;-50
2023/04/03 08:08:36;;;;;;;4.25;1.15;;;5.30;99.90;;;;;;5003292;28;20065;-51
2023/04/03 08:11:02;;;;;;;2.40;1.13;;;5.10;99.90;;;;;;5011549;28;20925;-55
2023/04/03 08:13:29;;;;;;;4.50;1.13;;;5.40;99.90;;;;;;4991800;28;20041;-53
2023/04/03 08:15:57;;;;;;;3.93;1.10;;;5.40;99.90;;;;;;5006831;28;20434;-51
2023/04/03 08:18:24;;;;;;;3.53;1.27;;;5.40;99.90;;;;;;5013231;28;20046;-52
2023/04/03 08:20:51;;;;;;;5.38;1.30;;;5.30;99.90;;;;;;5023157;28;20463;-52
2023/04/03 08:23:17;;;;;;;5.82;1.35;;;5.50;99.90;;;;;;4986415;28;20456;-52
2023/04/03 08:25:43;;;;;;;4.85;1.60;;;5.60;99.90;;;;;;5007547;28;20143;-52
2023/04/03 08:28:11;;;;;;;4.00;1.20;;;5.60;99.90;;;;;;5006318;28;20045;-52
2023/04/03 08:30:40;;;;;;;1.67;0.80;;;5.70;99.90;;;;;;5002726;28;20046;-50
2023/04/03 08:33:06;;;;;;;4.47;1.00;;;5.70;99.90;;;;;;5008840;28;20475;-50
2023/04/03 08:35:31;;;;;;;2.90;1.25;;;6.00;99.90;;;;;;5008571;28;20053;-53
2023/04/03 08:37:57;;;;;;;4.15;1.20;;;6.00;99.90;;;;;;5007130;28;20440;-54
2023/04/03 08:40:24;;;;;;;4.47;1.52;;;6.20;99.90;;;;;;5010477;28;20568;-50
2023/04/03 08:42:56;;;;;;;3.65;1.02;;;6.10;99.90;;;;;;4992536;28;20057;-53
2023/04/03 08:45:55;;;;;;;3.72;1.40;;;6.20;99.90;;;;;;5003060;28;20042;-55
2023/04/03 08:48:32;;;;;;;3.83;1.05;;;6.20;99.90;;;;;;5001655;28;20038;-52
2023/04/03 08:51:05;;;;;;;2.17;1.40;;;6.30;99.90;;;;;;5001423;28;20073;-55
2023/04/03 08:53:35;;;;;;;2.00;1.00;;;6.40;99.90;;;;;;5010966;28;20091;-51
2023/04/03 08:56:08;;;;;;;4.57;1.10;;;6.50;99.90;;;;;;4978378;28;21871;-50
2023/04/03 08:59:00;;;;;;;3.25;0.90;;;6.50;99.90;;;;;;5010470;28;20374;-52
2023/04/03 09:01:41;;;;;;;2.80;0.88;;;6.50;99.90;;;;;;5002073;28;20040;-50
2023/04/03 09:04:15;;;;;;;3.03;0.80;;;6.50;99.90;;;;;;5008909;28;20074;-53
2023/04/03 09:06:49;;;;;;;3.00;1.27;;;6.50;99.90;;;;;;5014767;28;20040;-52
2023/04/03 09:09:30;;;;;;;1.88;0.90;;;6.50;99.90;;;;;;5001042;28;20052;-52
2023/04/03 09:12:20;;;;;;;2.60;1.20;;;6.70;99.90;;;;;;4993281;28;20088;-52
2023/04/03 09:14:52;;;;;;;1.70;1.02;;;6.70;99.90;;;;;;5011935;28;20685;-51
2023/04/03 09:17:36;;;;;;;2.42;1.17;;;6.90;99.90;;;;;;4998894;28;20042;-55
2023/04/03 09:20:14;;;;;;;3.30;1.15;;;7.10;99.90;;;;;;4981482;28;20050;-55
2023/04/03 09:22:42;;;;;;;;;;;7.10;99.90;;;;;;5003204;28;20053;-53
2023/04/03 09:25:19;;;;;;;2.60;0.75;;;7.10;99.90;;;;;;4982811;28;19925;-54
2023/04/03 09:27:45;;;;;;;4.20;1.50;;;7.30;99.90;;;;;;5022811;28;21493;-54
2023/04/03 09:30:25;;;;;;;2.63;0.82;;;7.30;99.90;;;;;;5001045;28;20068;-54
2023/04/03 09:32:53;;;;;;;2.67;0.90;;;7.40;99.90;;;;;;5006661;28;20492;-54
2023/04/03 09:35:31;;;;;;;5.97;0.90;;;7.40;99.00;;;;;;5031436;28;20048;-54
2023/04/03 09:38:00;;;;;;;1.98;1.00;;;7.60;99.40;;;;;;5026155;28;20086;-51
2023/04/03 09:40:26;;;;;;;2.15;0.80;;;7.60;98.80;;;;;;5015383;28;20051;-50
2023/04/03 09:42:58;;;;;;;2.17;0.90;;;7.60;97.90;;;;;;5005197;28;20381;-52
2023/04/03 09:45:32;;;;;;;2.63;0.90;;;7.70;98.10;;;;;;5007308;28;20065;-53
2023/04/03 09:48:13;;;;;;;1.80;0.90;;;7.90;99.10;;;;;;5025357;28;20044;-56
2023/04/03 09:51:01;;;;;;;1.50;0.82;;;7.80;96.50;;;;;;5013633;28;20057;-52
2023/04/03 09:53:35;;;;;;;4.45;0.95;;;7.90;96.80;;;;;;5003763;28;20052;-53
2023/04/03 09:56:22;;;;;;;1.30;0.88;;;7.90;97.60;;;;;;4989951;28;20065;-55
2023/04/03 09:59:03;;;;;;;2.47;1.00;;;8.20;97.60;;;;;;5004368;28;20142;-53
2023/04/03 10:01:35;;;;;;;1.80;0.90;;;8.20;96.70;;;;;;5003672;28;20038;-52
2023/04/03 10:04:14;;;;;;;1.17;0.85;;;8.10;95.40;;;;;;5002913;28;20113;-53
2023/04/03 10:06:49;;;;;;;2.60;0.93;;;8.10;94.60;;;;;;5002925;28;20088;-54
2023/04/03 10:09:33;;;;;;;1.67;0.65;;;8.20;94.00;;;;;;4994086;28;20391;-52
2023/04/03 10:12:06;;;;;;;1.00;0.73;;;8.20;94.40;;;;;;5000706;28;20040;-54
2023/04/03 10:15:00;;;;;;;2.15;0.95;;;8.20;93.20;;;;;;5003018;28;20049;-51
2023/04/03 10:17:35;;;;;;;1.98;0.80;;;8.20;93.50;;;;;;5002800;28;20056;-53
2023/04/03 10:20:17;;;;;;;3.33;1.10;;;8.60;95.10;;;;;;4992046;28;20513;-50
2023/04/03 10:23:04;;;;;;;2.70;0.90;;;8.40;94.50;;;;;;5006106;28;20441;-50
2023/04/03 10:25:59;;;;;;;2.65;0.88;;;8.70;96.20;;;;;;4987449;28;20057;-51
2023/04/03 10:28:34;;;;;;;1.90;1.00;;;8.70;95.50;;;;;;5006074;28;20563;-50
2023/04/03 10:31:26;;;;;;;1.88;1.10;;;8.80;94.10;;;;;;5012382;28;20107;-54
2023/04/03 10:33:52;;;;;;;1.75;0.80;;;8.60;94.30;;;;;;5006011;28;20398;-50
2023/04/03 10:36:20;;;;;;;3.30;0.90;;;8.80;94.70;;;;;;5005348;28;20041;-53
2023/04/03 10:39:13;;;;;;;1.67;0.90;;;8.70;92.50;;;;;;5012814;28;20130;-52
2023/04/03 10:42:16;;;;;;;2.58;1.08;;;8.90;94.20;;;;;;5002229;28;20034;-54
2023/04/03 10:45:10;;;;;;;1.85;0.80;;;8.90;94.40;;;;;;5003837;28;20081;-55
2023/04/03 10:47:49;;;;;;;2.50;1.05;;;9.10;95.40;;;;;;5002570;28;20048;-52
2023/04/03 10:50:36;;;;;;;2.90;1.10;;;9.20;94.70;;;;;;5002885;28;20107;-54
2023/04/03 10:53:32;;;;;;;3.20;1.00;;;9.10;93.90;;;;;;4984309;28;20125;-54
2023/04/03 10:56:06;;;;;;;2.53;1.10;;;9.20;94.50;;;;;;5014379;28;20485;-55
2023/04/03 10:58:37;;;;;;;1.83;0.63;;;9.20;93.20;;;;;;4984182;28;20050;-50
2023/04/03 11:01:09;;;;;;;2.72;1.10;;;8.90;92.40;;;;;;5012101;28;20032;-52
2023/04/03 11:03:41;;;;;;;4.10;0.88;;;9.10;92.50;;;;;;5009733;28;20036;-51
2023/04/03 11:06:10;;;;;;;3.58;0.90;;;9.00;92.40;;;;;;4995286;28;20081;-50
2023/04/03 11:09:03;;;;;;;2.67;0.90;;;9.00;92.70;;;;;;5011579;28;20052;-53
2023/04/03 11:11:35;;;;;;;4.63;1.08;;;9.20;92.00;;;;;;5009818;28;20069;-52
2023/04/03 11:14:17;;;;;;;3.00;1.13;;;9.30;93.20;;;;;;5012051;28;20042;-50
2023/04/03 11:16:47;;;;;;;2.42;1.00;;;9.20;92.40;;;;;;5002007;28;20042;-50
2023/04/03 11:19:36;;;;;;;2.55;0.90;;;9.10;92.20;;;;;;5000545;28;20483;-51
2023/04/03 11:22:13;;;;;;;3.53;0.80;;;9.20;91.80;;;;;;5013058;28;20038;-51
2023/04/03 11:24:42;;;;;;;0.93;0.55;;;9.30;91.00;;;;;;5007556;28;20042;-50
2023/04/03 11:27:23;;;;;;;1.55;0.80;;;9.10;89.60;;;;;;5008545;28;20466;-54
2023/04/03 11:29:51;;;;;;;1.90;0.73;;;8.90;90.90;;;;;;5001531;28;20038;-51
2023/04/03 11:32:44;;;;;;;3.65;0.88;;;9.00;91.40;;;;;;5013819;28;20404;-50
2023/04/03 11:35:11;;;;;;;1.98;1.00;;;8.90;90.10;;;;;;5028239;28;20372;-51
2023/04/03 11:37:52;;;;;;;2.00;0.75;;;9.10;90.90;;;;;;5006507;28;20501;-51
2023/04/03 11:40:34;;;;;;;2.38;0.70;;;9.20;91.10;;;;;;5011709;28;20119;-54
2023/04/03 11:43:00;;;;;;;3.30;0.93;;;9.20;90.50;;;;;;4999970;28;20169;-50
2023/04/03 11:45:34;;;;;;;2.03;0.80;;;9.40;90.30;;;;;;5009431;28;20121;-51
2023/04/03 11:48:25;;;;;;;3.47;0.93;;;9.30;90.60;;;;;;5003139;28;20037;-50
2023/04/03 11:50:51;;;;;;;1.23;0.75;;;9.40;91.00;;;;;;5035849;28;20056;-51
2023/04/03 11:53:27;;;;;;;3.05;0.90;;;9.40;92.40;;;;;;5014798;28;20121;-52
2023/04/03 11:55:55;;;;;;;2.50;1.10;;;9.50;91.00;;;;;;5004199;28;20122;-54
2023/04/03 11:58:29;;;;;;;2.08;0.80;;;9.40;91.20;;;;;;5000375;28;20046;-55
2023/04/03 12:01:01;;;;;;;1.95;1.00;;;9.50;90.10;;;;;;5014016;28;20042;-52
2023/04/03 12:03:42;;;;;;;1.98;0.73;;;9.40;90.50;;;;;;5006765;28;20034;-51
2023/04/03 12:06:09;;;;;;;1.52;0.70;;;9.40;89.30;;;;;;5004469;28;20119;-52
2023/04/03 12:08:41;;;;;;;3.78;0.90;;;9.20;88.80;;;;;;5007615;28;20065;-55
2023/04/03 12:11:12;;;;;;;1.77;0.90;;;9.40;90.70;;;;;;4986638;28;20116;-49
2023/04/03 12:14:00;;;;;;;3.22;1.30;;;9.30;90.00;;;;;;4994981;28;20078;-54
2023/04/03 12:16:26;;;;;;;;;;;9.20;90.00;;;;;;5000515;28;20042;-51
2023/04/03 12:18:52;;;;;;;2.08;0.90;;;9.40;90.60;;;;;;5087048;28;20009;-52
2023/04/03 12:21:33;;;;;;;4.10;1.27;;;9.30;89.40;;;;;;4992139;28;20046;-52
2023/04/03 12:24:08;;;;;;;2.25;0.80;;;9.20;89.20;;;;;;5010907;28;20046;-53
2023/04/03 12:26:38;;;;;;;2.92;0.98;;;9.20;90.00;;;;;;5010888;28;20050;-54
2023/04/03 12:29:15;;;;;;;4.03;1.00;;;9.40;91.20;;;;;;5010504;28;20061;-49
2023/04/03 12:31:56;;;;;;;2.25;0.93;;;9.50;90.10;;;;;;5010185;28;20049;-51
2023/04/03 12:34:56;;;;;;;2.28;1.10;;;9.40;90.00;;;;;;5010736;28;20105;-52
2023/04/03 12:37:48;;;;;;;2.47;0.90;;;9.60;90.40;;;;;;5010726;28;20518;-49
2023/04/03 12:40:32;;;;;;;2.75;1.20;;;9.80;90.30;;;;;;5008577;28;20100;-50
2023/04/03 12:43:05;;;;;;;2.78;1.20;;;9.70;89.70;;;;;;5010639;28;20067;-49
2023/04/03 12:45:59;;;;;;;1.92;0.70;;;10.00;91.30;;;;;;5011253;28;20551;-54
2023/04/03 12:48:28;;;;;;;1.92;0.90;;;9.90;90.20;;;;;;5011522;28;20077;-51
2023/04/03 12:50:55;;;;;;;4.30;1.23;;;9.70;90.90;;;;;;5010422;28;20555;-52
2023/04/03 12:53:26;;;;;;;4.67;1.13;;;9.70;90.00;;;;;;5010389;28;20462;-50
2023/04/03 12:55:56;;;;;;;1.42;1.30;;;9.80;90.60;;;;;;5011063;28;20038;-52
2023/04/03 12:58:25;;;;;;;2.00;1.00;;;9.80;90.40;;;;;;5009962;28;20061;-52
2023/04/03 13:01:09;;;;;;;3.38;1.30;;;10.00;90.70;;;;;;5008678;28;20124;-51
2023/04/03 13:03:39;;;;;;;3.40;1.00;;;10.00;90.10;;;;;;5010108;28;20401;-53
2023/04/03 13:06:05;;;;;;;2.80;1.02;;;10.10;90.30;;;;;;5004275;28;20038;-50
2023/04/03 13:08:31;;;;;;;2.15;1.00;;;10.10;90.70;;;;;;4992088;28;20091;-50
2023/04/03 13:11:06;;;;;;;2.97;1.20;;;9.90;89.60;;;;;;5009027;28;20114;-53
2023/04/03 13:13:31;;;;;;;1.92;1.00;;;10.00;90.50;;;;;;4998508;28;20049;-49